Strona główna
METAR-TAF:

METAR-TAF

Lotnisko :

Port lotniczy Brunei

Brunei, Brunei

Szerokość geograficzna: 04-56N, Długość geograficzna: 114-56E, wysokość: 22 m

Aktualna obserwacja pogody

Raport powstał 20 minut temu, godzina 23:30 UTC
Wiatr 2 kt od południowy zachód
Temperatura 25°C
Wilgotność 100%
Ciśnienie 1014 hPa
Widzialność: 9000 m
Mało chmury na wysokości 500 ft
Przerywane chmury na wysokości 30000 ft

METAR: WBSB 192330Z 22002KT 9000 FEW005 BKN300 25/25 Q1014 NOSIG

czas: 07:50 (23:50 UTC)

Prognoza

Raport powstał 1 godzina i 0 minut temu, godzina 22:50 UTC
Prognoza ważna od 20 godzina 00 UTC do 21 godzina 06 UTC
Wiatr 3 kt od południowo-południowy zachód
Widzialność 10 km lub więcej
Mało chmury na wysokości 1500 ft
Stopniowe zmiany
od 20 godzina 03 UTC do 20 godzina 05 UTC
Wiatr 10 kt od północ
Rozproszone chmury na wysokości 1600 ft
Mało chmury na wysokości 1700 ft, Cumulonimbus.

TAF: WBSB 192250Z 2000/2106 20003KT 9999 FEW015 BECMG 2003/2005 35010KT SCT016 FEW017CB

Obserwacja i prognoza pogody dla ponad 4000 lotnisk (raport METAR i TAF).

Dostępne stacje oznaczono żółtymi i czerwonymi punktami na mapie.

Najedź kursorem aby zobaczyć nazwę stacji.

Kliknij aby zobaczyć obserwacje i prognozy pogody.

Aby zmienić mapę: kliknij na zielony przycisk z czarnym krzyżykiem, aby powiększyć; na zielony przycisk z myślnikiem, aby pomniejszyć; na zielone strzałki, aby przejść do map sąsiednich.


METAR-TAF: